createdAt,value
2019-06-15T00:02:20.878Z,18.60
2019-06-15T00:04:46.886Z,18.50
2019-06-15T00:07:12.906Z,18.50
2019-06-15T00:09:38.869Z,18.60
2019-06-15T00:12:04.878Z,18.60
2019-06-15T00:14:30.879Z,18.60
2019-06-15T00:16:56.893Z,18.60
2019-06-15T00:19:23.607Z,18.60
2019-06-15T00:21:49.635Z,18.50
2019-06-15T00:24:16.374Z,18.50
2019-06-15T00:26:42.417Z,18.50
2019-06-15T00:29:08.414Z,18.50
2019-06-15T00:31:34.412Z,18.60
2019-06-15T00:34:00.423Z,18.60
2019-06-15T00:36:26.454Z,18.50
2019-06-15T00:38:52.440Z,18.60
2019-06-15T00:41:19.201Z,18.60
2019-06-15T00:43:45.160Z,18.60
2019-06-15T00:46:11.214Z,18.60
2019-06-15T00:48:37.219Z,18.60
2019-06-15T00:51:03.219Z,18.60
2019-06-15T00:53:30.006Z,18.60
2019-06-15T00:55:55.995Z,18.50
2019-06-15T00:58:22.049Z,18.50
2019-06-15T01:00:48.049Z,18.50
2019-06-15T01:03:14.051Z,18.50
2019-06-15T01:05:40.040Z,18.40
2019-06-15T01:08:06.053Z,18.40
2019-06-15T01:10:32.762Z,18.40
2019-06-15T01:12:58.757Z,18.40
2019-06-15T01:15:24.728Z,18.40
2019-06-15T01:17:51.507Z,18.30
2019-06-15T01:20:17.482Z,18.30
2019-06-15T01:22:44.252Z,18.20
2019-06-15T01:25:10.227Z,18.20
2019-06-15T01:27:36.250Z,18.20
2019-06-15T01:30:02.266Z,18.20
2019-06-15T01:32:28.296Z,18.20
2019-06-15T01:34:54.274Z,18.20
2019-06-15T01:37:20.297Z,18.20
2019-06-15T01:39:46.262Z,18.20
2019-06-15T01:42:12.258Z,18.20
2019-06-15T01:44:38.231Z,18.10
2019-06-15T01:47:04.287Z,18.20
2019-06-15T01:49:30.295Z,18.20
2019-06-15T01:51:56.301Z,18.20
2019-06-15T01:54:22.290Z,18.20
2019-06-15T01:56:48.254Z,18.20
2019-06-15T01:59:14.258Z,18.10
2019-06-15T02:01:40.240Z,18.00
2019-06-15T02:04:06.262Z,17.90
2019-06-15T02:06:32.256Z,17.90
2019-06-15T02:08:59.003Z,17.80
2019-06-15T02:11:25.722Z,17.70
2019-06-15T02:13:51.731Z,17.70
2019-06-15T02:16:17.701Z,17.70
2019-06-15T02:18:43.707Z,17.60
2019-06-15T02:21:10.428Z,17.50
2019-06-15T02:23:36.449Z,17.50
2019-06-15T02:26:02.438Z,17.50
2019-06-15T02:28:28.427Z,17.50
2019-06-15T02:30:55.146Z,17.40
2019-06-15T02:33:21.177Z,17.40
2019-06-15T02:35:47.148Z,17.40
2019-06-15T02:38:13.164Z,17.40
2019-06-15T02:40:39.140Z,17.40
2019-06-15T02:43:05.155Z,17.40
2019-06-15T02:45:31.153Z,17.40
2019-06-15T02:47:57.147Z,17.40
2019-06-15T02:50:23.146Z,17.40
2019-06-15T02:52:49.106Z,17.40
2019-06-15T02:55:15.108Z,17.40
2019-06-15T02:57:41.808Z,17.30
2019-06-15T03:00:07.834Z,17.30
2019-06-15T03:02:33.818Z,17.40
2019-06-15T03:04:59.836Z,17.40
2019-06-15T03:07:25.797Z,17.40
2019-06-15T03:09:51.860Z,17.30
2019-06-15T03:12:17.859Z,17.30
2019-06-15T03:14:43.843Z,17.30
2019-06-15T03:17:09.838Z,17.20
2019-06-15T03:19:36.551Z,17.20
2019-06-15T03:22:02.509Z,17.20
2019-06-15T03:24:28.504Z,17.30
2019-06-15T03:26:54.469Z,17.30
2019-06-15T03:29:20.553Z,17.30
2019-06-15T03:31:46.522Z,17.30
2019-06-15T03:34:12.538Z,17.30
2019-06-15T03:36:38.496Z,17.30
2019-06-15T03:39:04.510Z,17.30
2019-06-15T03:41:30.528Z,17.20
2019-06-15T03:43:56.525Z,17.20
2019-06-15T03:46:22.548Z,17.20
2019-06-15T03:48:48.523Z,17.20
2019-06-15T03:51:14.524Z,17.20
2019-06-15T03:53:40.514Z,17.20
2019-06-15T03:56:20.596Z,17.10
2019-06-15T03:58:32.544Z,17.20
2019-06-15T04:00:59.306Z,17.20
2019-06-15T04:03:25.285Z,17.20
2019-06-15T04:05:51.288Z,17.20
2019-06-15T04:08:17.256Z,17.20
2019-06-15T04:10:43.973Z,17.20
2019-06-15T04:13:09.930Z,17.20
2019-06-15T04:15:35.916Z,17.30
2019-06-15T04:18:01.890Z,17.30
2019-06-15T04:20:27.897Z,17.30
2019-06-15T04:22:54.599Z,17.40
2019-06-15T04:25:20.596Z,17.30
2019-06-15T04:27:46.590Z,17.30
2019-06-15T04:30:12.578Z,17.30
2019-06-15T04:32:38.542Z,17.30
2019-06-15T04:35:04.558Z,17.30
2019-06-15T04:37:30.576Z,17.30
2019-06-15T04:39:57.305Z,17.40
2019-06-15T04:42:24.035Z,17.40
2019-06-15T04:44:50.055Z,17.40
2019-06-15T04:47:16.037Z,17.40
2019-06-15T04:49:42.020Z,17.40
2019-06-15T04:52:08.748Z,17.40
2019-06-15T04:54:35.484Z,17.30
2019-06-15T04:57:02.251Z,17.40
2019-06-15T04:59:28.270Z,17.40
2019-06-15T05:01:54.294Z,17.40
2019-06-15T05:04:20.290Z,17.40
2019-06-15T05:06:46.293Z,17.40
2019-06-15T05:09:12.272Z,17.50
2019-06-15T05:11:38.297Z,17.40
2019-06-15T05:14:04.271Z,17.40
2019-06-15T05:16:30.280Z,17.40
2019-06-15T05:18:56.246Z,17.40
2019-06-15T05:21:22.290Z,17.30
2019-06-15T05:23:48.262Z,17.30
2019-06-15T05:26:14.260Z,17.30
2019-06-15T05:28:40.215Z,17.40
2019-06-15T05:31:06.196Z,17.40
2019-06-15T05:33:32.175Z,17.50
2019-06-15T05:35:58.210Z,17.50
2019-06-15T05:38:24.927Z,17.70
2019-06-15T05:40:50.915Z,17.70
2019-06-15T05:43:16.942Z,17.70
2019-06-15T05:45:42.931Z,17.70
2019-06-15T05:48:08.930Z,17.80
2019-06-15T05:50:34.938Z,17.80
2019-06-15T05:53:01.727Z,17.90
2019-06-15T05:55:27.704Z,17.90
2019-06-15T05:57:53.696Z,18.00
2019-06-15T06:00:19.675Z,18.10
2019-06-15T06:02:45.727Z,18.00
2019-06-15T06:05:11.774Z,17.90
2019-06-15T06:07:37.794Z,17.90
2019-06-15T06:10:03.772Z,18.00
2019-06-15T06:12:30.514Z,17.80
2019-06-15T06:14:56.481Z,17.80
2019-06-15T06:17:22.477Z,17.70
2019-06-15T06:19:48.484Z,17.70
2019-06-15T06:22:15.233Z,18.10
2019-06-15T06:24:41.963Z,18.50
2019-06-15T06:27:08.717Z,18.80
2019-06-15T06:29:35.441Z,18.90
2019-06-15T06:32:02.215Z,18.90
2019-06-15T06:34:28.208Z,18.90
2019-06-15T06:36:54.943Z,18.90
2019-06-15T06:39:21.024Z,18.90
2019-06-15T06:41:47.795Z,18.90
2019-06-15T06:44:13.810Z,18.80
2019-06-15T06:46:39.781Z,18.80
2019-06-15T06:49:05.791Z,18.60
2019-06-15T06:51:32.515Z,18.50
2019-06-15T06:53:58.524Z,18.50
2019-06-15T06:56:24.528Z,18.40
2019-06-15T06:58:50.507Z,18.40
2019-06-15T07:01:17.219Z,18.00
2019-06-15T07:03:43.269Z,18.00
2019-06-15T07:06:09.244Z,18.00
2019-06-15T07:08:35.232Z,17.90
2019-06-15T07:11:01.224Z,17.90
2019-06-15T07:13:27.994Z,17.80
2019-06-15T07:15:54.723Z,17.70
2019-06-15T07:18:21.474Z,17.60
2019-06-15T07:20:47.466Z,17.60
2019-06-15T07:23:14.227Z,17.60
2019-06-15T07:25:40.248Z,17.60
2019-06-15T07:28:08.374Z,17.70
2019-06-15T07:30:33.039Z,17.60
2019-06-15T07:32:59.060Z,17.70
2019-06-15T07:35:25.065Z,17.70
2019-06-15T07:37:51.068Z,17.70
2019-06-15T07:40:17.075Z,17.70
2019-06-15T07:42:43.077Z,17.70
2019-06-15T07:45:09.081Z,17.60
2019-06-15T07:47:35.078Z,17.60
2019-06-15T07:50:01.833Z,17.70
2019-06-15T07:52:28.548Z,17.70
2019-06-15T07:54:55.299Z,17.70
2019-06-15T07:57:22.020Z,17.70
2019-06-15T07:59:48.033Z,17.70
2019-06-15T08:02:14.008Z,17.60
2019-06-15T08:04:40.029Z,17.50
2019-06-15T08:07:06.056Z,17.40
2019-06-15T08:09:32.078Z,17.40
2019-06-15T08:11:58.100Z,17.40
2019-06-15T08:14:24.826Z,17.30
2019-06-15T08:16:50.960Z,17.30
2019-06-15T08:19:17.713Z,17.30
2019-06-15T08:21:43.681Z,17.30
2019-06-15T08:24:09.686Z,17.30
2019-06-15T08:26:35.671Z,17.30
2019-06-15T08:29:01.726Z,17.40
2019-06-15T08:31:27.694Z,17.40
2019-06-15T08:33:53.761Z,17.40
2019-06-15T08:36:19.743Z,17.40
2019-06-15T08:38:45.731Z,17.40
2019-06-15T08:41:11.768Z,17.30
2019-06-15T08:43:37.783Z,17.40
2019-06-15T08:46:03.820Z,17.30
2019-06-15T08:48:29.925Z,17.30
2019-06-15T08:50:55.935Z,17.20
2019-06-15T08:53:21.903Z,17.30
2019-06-15T08:55:47.918Z,17.30
2019-06-15T08:58:13.906Z,17.30
2019-06-15T09:00:39.911Z,17.20
2019-06-15T09:03:06.630Z,17.20
2019-06-15T09:05:32.657Z,17.20
2019-06-15T09:07:59.402Z,17.20
2019-06-15T09:10:26.173Z,17.20
2019-06-15T09:12:52.158Z,17.20
2019-06-15T09:15:18.911Z,17.20
2019-06-15T09:17:45.617Z,17.20
2019-06-15T09:20:11.632Z,17.20
2019-06-15T09:22:37.697Z,17.30
2019-06-15T09:25:04.442Z,17.30
2019-06-15T09:27:30.440Z,17.30
2019-06-15T09:29:56.438Z,17.30
2019-06-15T09:32:22.450Z,17.30
2019-06-15T09:34:48.461Z,17.40
2019-06-15T09:37:14.462Z,17.40
2019-06-15T09:39:41.178Z,17.40
2019-06-15T09:42:07.182Z,17.40
2019-06-15T09:44:33.189Z,17.40
2019-06-15T09:46:59.236Z,17.50
2019-06-15T09:49:25.283Z,17.50
2019-06-15T09:51:51.344Z,17.50
2019-06-15T09:54:17.337Z,17.60
2019-06-15T09:56:43.409Z,17.60
2019-06-15T09:59:09.390Z,17.60
2019-06-15T10:01:36.215Z,17.70
2019-06-15T10:04:09.033Z,17.60
2019-06-15T10:06:35.091Z,17.60
2019-06-15T10:09:01.075Z,17.60
2019-06-15T10:11:27.107Z,17.60
2019-06-15T10:13:53.103Z,17.60
2019-06-15T10:16:19.850Z,17.70
2019-06-15T10:18:46.587Z,17.70
2019-06-15T10:21:13.363Z,17.70
2019-06-15T10:23:39.351Z,17.70
2019-06-15T10:26:06.116Z,17.80
2019-06-15T10:28:32.108Z,17.70
2019-06-15T10:31:00.771Z,17.70
2019-06-15T10:33:24.155Z,17.80
2019-06-15T10:35:50.889Z,17.90
2019-06-15T10:38:16.898Z,17.90
2019-06-15T10:40:42.882Z,18.10
2019-06-15T10:43:08.964Z,18.40
2019-06-15T10:45:35.037Z,18.60
2019-06-15T10:48:01.117Z,18.70
2019-06-15T10:50:27.218Z,19.00
2019-06-15T10:52:53.429Z,19.20
2019-06-15T10:55:19.486Z,19.30
2019-06-15T10:57:45.481Z,19.50
2019-06-15T11:00:11.552Z,19.50
2019-06-15T11:02:37.715Z,19.90
2019-06-15T11:05:03.689Z,20.10
2019-06-15T11:07:29.685Z,20.30
2019-06-15T11:09:55.708Z,20.70
2019-06-15T11:12:21.734Z,20.80
2019-06-15T11:14:47.720Z,21.00
2019-06-15T11:17:13.720Z,20.90
2019-06-15T11:19:40.439Z,21.60
2019-06-15T11:22:06.432Z,21.60
2019-06-15T11:24:32.429Z,21.90
2019-06-15T11:26:58.397Z,22.00
2019-06-15T11:29:24.397Z,22.20
2019-06-15T11:31:50.468Z,22.20
2019-06-15T11:34:16.528Z,22.20
2019-06-15T11:36:42.513Z,22.30
2019-06-15T11:39:08.537Z,22.90
2019-06-15T11:41:34.495Z,23.20
2019-06-15T11:44:00.512Z,23.10
2019-06-15T11:46:27.222Z,23.00
2019-06-15T11:48:53.238Z,23.00
2019-06-15T11:51:19.230Z,23.10
2019-06-15T11:53:45.235Z,23.40
2019-06-15T11:56:11.230Z,23.50
2019-06-15T11:58:37.986Z,23.40
2019-06-15T12:01:04.694Z,23.70
2019-06-15T12:03:30.688Z,23.60
2019-06-15T12:05:56.673Z,23.90
2019-06-15T12:08:23.413Z,23.70
2019-06-15T12:10:50.133Z,23.60
2019-06-15T12:13:16.141Z,23.50
2019-06-15T12:15:42.143Z,23.30
2019-06-15T12:18:08.171Z,23.00
2019-06-15T12:20:34.184Z,22.80
2019-06-15T12:23:00.203Z,22.60
2019-06-15T12:25:26.216Z,22.70
2019-06-15T12:27:52.267Z,22.50
2019-06-15T12:30:18.313Z,22.20
2019-06-15T12:32:45.070Z,21.80
2019-06-15T12:35:11.093Z,21.80
2019-06-15T12:37:37.050Z,21.50
2019-06-15T12:40:03.051Z,21.30
2019-06-15T12:42:29.776Z,21.00
2019-06-15T12:44:56.543Z,20.70
2019-06-15T12:47:23.282Z,20.50
2019-06-15T12:49:50.014Z,20.40
2019-06-15T12:52:16.001Z,20.40
2019-06-15T12:54:42.788Z,20.40
2019-06-15T12:57:09.536Z,20.60
2019-06-15T12:59:35.543Z,20.60
2019-06-15T13:02:02.242Z,20.60
2019-06-15T13:04:28.275Z,20.60
2019-06-15T13:06:54.248Z,20.30
2019-06-15T13:09:20.258Z,20.10
2019-06-15T13:11:47.026Z,19.80
2019-06-15T13:14:13.047Z,19.80
2019-06-15T13:16:39.998Z,19.80
2019-06-15T13:19:05.083Z,19.90
2019-06-15T13:21:31.122Z,19.90
2019-06-15T13:23:57.137Z,19.90
2019-06-15T13:26:23.926Z,20.00
2019-06-15T13:28:51.225Z,20.00
2019-06-15T13:31:18.475Z,20.10
2019-06-15T13:33:42.287Z,20.60
2019-06-15T13:36:08.369Z,20.90
2019-06-15T13:38:34.481Z,20.90
2019-06-15T13:41:01.942Z,20.80
2019-06-15T13:43:28.723Z,20.00
2019-06-15T13:45:54.842Z,20.00
2019-06-15T13:48:20.889Z,19.80
2019-06-15T13:50:46.892Z,19.50
2019-06-15T13:53:12.884Z,19.60
2019-06-15T13:55:39.638Z,19.30
2019-06-15T13:58:05.805Z,19.20
2019-06-15T14:00:31.836Z,19.10
2019-06-15T14:02:57.839Z,18.90
2019-06-15T14:05:23.908Z,18.60
2019-06-15T14:07:49.886Z,18.40
2019-06-15T14:10:15.916Z,18.70
2019-06-15T14:12:41.888Z,18.90
2019-06-15T14:15:08.692Z,18.80
2019-06-15T14:17:34.670Z,18.70
2019-06-15T14:20:01.416Z,18.60
2019-06-15T14:22:27.391Z,18.60
2019-06-15T14:24:53.400Z,18.70
2019-06-15T14:27:19.406Z,18.80
2019-06-15T14:29:45.434Z,18.80
2019-06-15T14:32:11.720Z,18.70
2019-06-15T14:34:38.440Z,18.70
2019-06-15T14:37:04.463Z,18.60
2019-06-15T14:39:31.236Z,18.80
2019-06-15T14:41:57.249Z,18.80
2019-06-15T14:44:23.965Z,19.00
2019-06-15T14:46:50.027Z,18.90
2019-06-15T14:49:16.045Z,19.10
2019-06-15T14:51:42.146Z,19.20
2019-06-15T14:54:08.903Z,19.20
2019-06-15T14:56:35.674Z,19.10
2019-06-15T14:59:01.645Z,19.10
2019-06-15T15:01:27.700Z,19.10
2019-06-15T15:03:57.085Z,19.30
2019-06-15T15:06:20.517Z,19.30
2019-06-15T15:08:47.317Z,19.30
2019-06-15T15:11:13.475Z,19.30
2019-06-15T15:13:40.197Z,19.50
2019-06-15T15:16:06.965Z,19.40
2019-06-15T15:18:32.353Z,19.40
2019-06-15T15:20:58.323Z,19.40
2019-06-15T15:23:24.327Z,19.60
2019-06-15T15:25:50.354Z,19.60
2019-06-15T15:28:16.396Z,19.60
2019-06-15T15:30:43.161Z,19.60
2019-06-15T15:33:09.968Z,19.50
2019-06-15T15:35:37.220Z,19.50
2019-06-15T15:38:02.095Z,19.30
2019-06-15T15:40:28.116Z,19.30
2019-06-15T15:42:56.199Z,19.30
2019-06-15T15:45:20.973Z,19.40
2019-06-15T15:47:47.002Z,19.40
2019-06-15T15:50:12.993Z,19.20
2019-06-15T15:52:39.067Z,19.30
2019-06-15T15:55:06.673Z,19.40
2019-06-15T15:57:31.185Z,19.50
2019-06-15T15:59:57.160Z,19.50
2019-06-15T16:02:26.850Z,19.60
2019-06-15T16:04:50.093Z,19.60
2019-06-15T16:07:16.837Z,19.50
2019-06-15T16:09:43.140Z,19.70
2019-06-15T16:12:09.835Z,19.60
2019-06-15T16:14:36.967Z,19.60
2019-06-15T16:17:01.978Z,19.60
2019-06-15T16:19:28.000Z,19.40
2019-06-15T16:21:56.014Z,19.40
2019-06-15T16:24:20.121Z,19.40
2019-06-15T16:26:46.688Z,19.40
2019-06-15T16:29:12.153Z,19.40
2019-06-15T16:31:38.860Z,19.50
2019-06-15T16:34:04.867Z,19.50
2019-06-15T16:36:30.876Z,19.50
2019-06-15T16:38:56.925Z,19.70
2019-06-15T16:41:22.915Z,19.70
2019-06-15T16:43:48.915Z,20.00
2019-06-15T16:46:17.141Z,20.10
2019-06-15T16:48:40.991Z,20.20
2019-06-15T16:51:06.967Z,20.20
2019-06-15T16:53:33.738Z,20.20
2019-06-15T16:55:59.754Z,20.20
2019-06-15T16:58:26.495Z,20.00
2019-06-15T17:00:51.850Z,19.90
2019-06-15T17:03:24.846Z,20.00
2019-06-15T17:05:46.564Z,19.90
2019-06-15T17:08:10.624Z,19.60
2019-06-15T17:10:36.609Z,19.50
2019-06-15T17:13:02.608Z,19.50
2019-06-15T17:15:28.696Z,19.60
2019-06-15T17:17:56.353Z,19.50
2019-06-15T17:20:21.539Z,19.70
2019-06-15T17:22:47.589Z,19.70
2019-06-15T17:25:13.608Z,19.70
2019-06-15T17:27:39.651Z,19.70
2019-06-15T17:30:07.252Z,19.80
2019-06-15T17:32:33.196Z,19.80
2019-06-15T17:35:00.143Z,19.70
2019-06-15T17:37:26.690Z,19.70
2019-06-15T17:39:52.882Z,19.70
2019-06-15T17:42:18.909Z,19.50
2019-06-15T17:44:46.340Z,19.30
2019-06-15T17:47:13.386Z,19.40
2019-06-15T17:49:39.479Z,19.20
2019-06-15T17:52:06.559Z,19.10
2019-06-15T17:54:31.625Z,19.10
2019-06-15T17:56:57.621Z,19.00
2019-06-15T17:59:23.723Z,18.80
2019-06-15T18:01:50.476Z,18.60
2019-06-15T18:04:17.639Z,18.60
2019-06-15T18:06:46.913Z,18.60
2019-06-15T18:09:10.821Z,18.50
2019-06-15T18:11:37.598Z,18.30
2019-06-15T18:14:02.946Z,18.20
2019-06-15T18:16:30.574Z,18.20
2019-06-15T18:18:55.797Z,18.20
2019-06-15T18:21:22.945Z,18.20
2019-06-15T18:23:49.469Z,18.30
2019-06-15T18:26:16.433Z,18.30
2019-06-15T18:28:42.626Z,18.30
2019-06-15T18:31:08.712Z,18.30
2019-06-15T18:33:36.632Z,18.20
2019-06-15T18:36:01.165Z,18.10
2019-06-15T18:38:27.213Z,18.10
2019-06-15T18:40:53.256Z,18.10
2019-06-15T18:43:19.351Z,18.00
2019-06-15T18:45:47.264Z,17.90
2019-06-15T18:48:12.663Z,17.90
2019-06-15T18:50:44.721Z,17.80
2019-06-15T18:53:10.920Z,17.70
2019-06-15T18:55:37.002Z,17.60
2019-06-15T18:58:03.021Z,17.50
2019-06-15T19:00:29.050Z,17.50
2019-06-15T19:02:56.052Z,17.40
2019-06-15T19:05:21.907Z,17.30
2019-06-15T19:07:47.947Z,17.30
2019-06-15T19:10:16.444Z,17.20
2019-06-15T19:12:40.009Z,17.10
2019-06-15T19:15:07.335Z,17.10
2019-06-15T19:17:32.783Z,17.00
2019-06-15T19:19:58.808Z,17.00
2019-06-15T19:22:27.125Z,17.00
2019-06-15T19:24:51.602Z,17.00
2019-06-15T19:27:17.611Z,17.00
2019-06-15T19:29:43.631Z,17.00
2019-06-15T19:32:09.675Z,17.10
2019-06-15T19:34:44.312Z,17.10
2019-06-15T19:37:01.715Z,17.10
2019-06-15T19:39:27.685Z,17.10
2019-06-15T19:41:56.171Z,17.10
2019-06-15T19:44:19.749Z,17.10
2019-06-15T19:46:47.613Z,17.00
2019-06-15T19:49:12.575Z,17.00
2019-06-15T19:51:38.553Z,16.90
2019-06-15T19:54:06.859Z,16.90
2019-06-15T19:56:31.428Z,16.70
2019-06-15T19:58:58.181Z,16.60
2019-06-15T20:01:26.227Z,16.60
2019-06-15T20:03:51.057Z,16.40
2019-06-15T20:06:17.064Z,16.40
2019-06-15T20:08:43.061Z,16.30
2019-06-15T20:11:09.026Z,16.10
2019-06-15T20:13:37.110Z,16.10
2019-06-15T20:16:01.114Z,16.00
2019-06-15T20:18:30.007Z,15.90
2019-06-15T20:20:53.205Z,15.80
2019-06-15T20:23:19.979Z,15.60
2019-06-15T20:25:47.093Z,15.50
2019-06-15T20:28:12.188Z,15.50
2019-06-15T20:30:38.178Z,15.40
2019-06-15T20:33:04.203Z,15.40
2019-06-15T20:35:30.207Z,15.40
2019-06-15T20:37:56.237Z,15.30
2019-06-15T20:40:22.232Z,15.20
2019-06-15T20:42:48.240Z,15.20
2019-06-15T20:45:14.273Z,15.10
2019-06-15T20:47:40.278Z,15.10
2019-06-15T20:50:06.999Z,14.80
2019-06-15T20:52:33.016Z,14.80
2019-06-15T20:54:59.781Z,14.80
2019-06-15T20:57:26.550Z,14.80
2019-06-15T20:59:52.557Z,14.70
2019-06-15T21:02:18.619Z,14.70
2019-06-15T21:04:44.620Z,14.60
2019-06-15T21:07:10.669Z,14.60
2019-06-15T21:09:36.692Z,14.50
2019-06-15T21:12:02.745Z,14.50
2019-06-15T21:14:29.518Z,14.40
2019-06-15T21:16:56.837Z,14.30
2019-06-15T21:19:22.335Z,14.20
2019-06-15T21:21:48.337Z,14.30
2019-06-15T21:24:16.907Z,14.30
2019-06-15T21:26:40.446Z,14.30
2019-06-15T21:29:07.207Z,14.20
2019-06-15T21:31:33.208Z,14.20
2019-06-15T21:33:59.297Z,14.20
2019-06-15T21:36:26.043Z,14.20
2019-06-15T21:38:51.460Z,14.10
2019-06-15T21:41:17.501Z,14.10
2019-06-15T21:43:44.296Z,14.20
2019-06-15T21:46:10.346Z,14.10
2019-06-15T21:48:36.648Z,14.10
2019-06-15T21:51:02.478Z,14.00
2019-06-15T21:53:28.496Z,14.00
2019-06-15T21:55:56.266Z,14.00
2019-06-15T21:58:20.574Z,13.90
2019-06-15T22:00:47.685Z,13.90
2019-06-15T22:03:12.573Z,13.90
2019-06-15T22:05:38.834Z,13.90
2019-06-15T22:08:06.428Z,13.80
2019-06-15T22:10:31.037Z,13.70
2019-06-15T22:12:57.755Z,13.70
2019-06-15T22:15:23.762Z,13.70
2019-06-15T22:17:49.753Z,13.60
2019-06-15T22:20:16.919Z,13.70
2019-06-15T22:22:41.810Z,13.70
2019-06-15T22:25:07.809Z,13.60
2019-06-15T22:27:36.037Z,13.60
2019-06-15T22:29:59.857Z,13.60
2019-06-15T22:32:27.053Z,13.60
2019-06-15T22:34:51.899Z,13.60
2019-06-15T22:37:18.621Z,13.50
2019-06-15T22:39:46.683Z,13.50
2019-06-15T22:42:11.487Z,13.40
2019-06-15T22:44:38.216Z,13.40
2019-06-15T22:47:06.747Z,13.40
2019-06-15T22:49:31.022Z,13.30
2019-06-15T22:51:57.021Z,13.30
2019-06-15T22:54:25.981Z,13.30
2019-06-15T22:56:49.830Z,13.20
2019-06-15T22:59:17.032Z,13.20
2019-06-15T23:01:42.714Z,13.20
2019-06-15T23:04:08.701Z,13.20
2019-06-15T23:06:38.731Z,13.10
2019-06-15T23:09:00.764Z,13.10
2019-06-15T23:11:26.824Z,13.10
2019-06-15T23:13:52.780Z,13.20
2019-06-15T23:16:19.536Z,13.00
2019-06-15T23:18:46.769Z,13.10
2019-06-15T23:21:11.602Z,13.10
2019-06-15T23:23:37.599Z,13.10
2019-06-15T23:26:06.287Z,13.00
2019-06-15T23:28:29.669Z,13.00
2019-06-15T23:30:56.176Z,13.10
2019-06-15T23:33:21.697Z,13.00
2019-06-15T23:35:47.673Z,13.00
2019-06-15T23:38:15.869Z,13.00
2019-06-15T23:40:39.744Z,13.00
2019-06-15T23:43:06.254Z,13.00
2019-06-15T23:45:31.796Z,13.00
2019-06-15T23:47:58.564Z,12.90
2019-06-15T23:50:26.393Z,12.90
2019-06-15T23:52:51.293Z,12.90
2019-06-15T23:55:17.272Z,12.80
2019-06-15T23:57:43.260Z,12.90
